Latest Weather Observations for Butlers Gorge

IDT60801

Issued at 9:21 am EST Monday 19 April 2021 (issued every 10 minutes, with the page automatically refreshed every 10 minutes)

About weather observations | Map of weather stations | Latest weather observations for TAS | Other Formats
Station Details ID: 096003 Name: BUTLERS GORGE Lat: -42.28 Lon: 146.28 Height: 667.0 m
Data from the previous 72 hours. | See also: Recent months at Butlers Gorge
Date/Time
EST
Temp
°C
App
Temp
°C
Dew
Point
°C
Rel
Hum
%
Delta-T
°C
Wind Press
QNH
hPa
Press
MSL
hPa
Rain since
9am
mm
Dir  Spd
km/h
Gust
km/h
Spd
kts
Gust
kts
19/09:00am 9.2 4.7 4.4 72 2.2 WNW 17 32 9 17 - - 0.0
19/08:30am 9.0 4.9 4.4 73 2.1 NW 15 30 8 16 - - 0.0
19/08:00am 8.5 5.2 4.5 76 1.8 W 11 20 6 11 - - 0.0
19/07:30am 8.2 4.8 3.9 74 1.9 WNW 11 19 6 10 - - 0.0
19/07:00am 8.2 4.8 4.2 76 1.8 W 11 26 6 14 - - 0.0
19/06:30am 8.3 5.0 4.7 78 1.7 W 11 20 6 11 - - 0.0
19/06:00am 8.2 5.3 4.8 79 1.6 W 9 17 5 9 - - 0.0
19/05:30am 8.2 4.5 4.6 78 1.7 W 13 20 7 11 - - 0.0
19/05:00am 8.3 5.1 5.1 80 1.5 W 11 24 6 13 - - 0.0
19/04:30am 8.4 5.8 5.9 84 1.2 W 9 20 5 11 - - 0.0
19/04:00am 8.6 5.2 5.7 82 1.4 W 13 20 7 11 - - 0.0
19/03:30am 8.7 5.7 6.2 84 1.2 W 11 20 6 11 - - 0.0
19/03:00am 8.6 5.6 6.2 85 1.1 W 11 22 6 12 - - 0.0
19/02:30am 8.6 5.6 6.2 85 1.1 W 11 20 6 11 - - 0.0
19/02:00am 8.3 5.7 6.1 86 1.0 W 9 15 5 8 - - 0.0
19/01:30am 8.4 5.0 5.7 83 1.3 W 13 20 7 11 - - 0.0
19/01:00am 8.2 5.4 5.3 82 1.4 WNW 9 22 5 12 - - 0.0
19/12:30am 8.3 5.1 5.1 80 1.5 WNW 11 26 6 14 - - 0.0
19/12:00am 8.2 5.3 4.8 79 1.6 W 9 20 5 11 - - 0.0
 
Date/Time
EST
Temp
°C
App
Temp
°C
Dew
Point
°C
Rel
Hum
%
Delta-T
°C
Wind Press
QNH
hPa
Press
MSL
hPa
Rain since
9am
mm
Dir  Spd
km/h
Gust
km/h
Spd
kts
Gust
kts
18/11:30pm 8.2 4.7 5.3 82 1.4 WNW 13 26 7 14 - - 0.0
18/11:00pm 8.3 5.5 5.2 81 1.4 WNW 9 20 5 11 - - 0.0
18/10:30pm 8.0 4.9 5.5 84 1.2 WSW 11 17 6 9 - - 0.0
18/10:00pm 8.3 4.4 5.2 81 1.4 WSW 15 26 8 14 - - 0.0
18/09:30pm 8.4 4.9 5.3 81 1.4 W 13 20 7 11 - - 0.0
18/09:00pm 8.3 4.8 5.6 83 1.3 WSW 13 20 7 11 - - 0.0
18/08:30pm 8.4 5.2 5.3 81 1.4 W 11 19 6 10 - - 0.0
18/08:00pm 8.5 5.8 5.4 81 1.5 W 9 17 5 9 - - 0.0
18/07:30pm 8.6 5.4 5.2 79 1.6 WNW 11 20 6 11 - - 0.0
18/07:00pm 8.6 5.1 5.4 80 1.5 WNW 13 26 7 14 - - 0.0
18/06:30pm 8.9 5.6 6.2 83 1.3 WNW 13 24 7 13 - - 0.0
18/06:00pm 9.1 6.5 6.0 81 1.5 W 9 19 5 10 - - 0.0
18/05:30pm 9.4 6.8 6.1 80 1.6 W 9 17 5 9 - - 0.0
18/05:00pm 9.6 6.7 6.7 82 1.4 WNW 11 19 6 10 - - 0.0
18/04:30pm 10.0 7.0 6.2 77 1.8 WNW 11 22 6 12 - - 0.0
18/04:00pm 9.9 6.7 7.0 82 1.4 WNW 13 24 7 13 - - 0.0
18/03:30pm 10.1 6.0 6.3 77 1.8 WNW 17 28 9 15 - - 0.0
18/03:00pm 10.0 6.8 6.9 81 1.5 WNW 13 26 7 14 - - 0.0
18/02:30pm 10.2 6.2 6.5 78 1.8 WNW 17 30 9 16 - - 0.0
18/02:00pm 10.5 7.6 6.3 75 2.0 WNW 11 19 6 10 - - 0.0
18/01:30pm 10.3 7.0 6.3 76 1.9 W 13 33 7 18 - - 0.0
18/01:00pm 10.5 7.9 6.1 74 2.1 NW 9 19 5 10 - - 0.0
18/12:30pm 10.5 7.1 5.9 73 2.2 WNW 13 24 7 13 - - 0.0
18/12:00pm 10.5 7.6 6.3 75 2.0 WNW 11 33 6 18 - - 0.0
18/11:30am 9.9 6.5 6.1 77 1.8 W 13 24 7 13 - - 0.0
18/11:00am 9.8 6.5 6.5 80 1.6 W 13 20 7 11 - - 0.0
18/10:30am 9.4 7.0 6.8 84 1.3 W 9 17 5 9 - - 0.0
18/10:00am 8.9 6.0 6.7 86 1.1 WNW 11 19 6 10 - - 0.0
18/09:30am 9.0 6.8 6.4 84 1.2 WNW 7 17 4 9 - - 0.0
18/09:00am 8.8 5.8 5.9 82 1.4 WNW 11 20 6 11 - - 1.4
18/08:30am 8.6 5.6 5.9 83 1.3 WNW 11 19 6 10 - - 1.4
18/08:00am 8.4 5.3 5.5 82 1.4 WNW 11 19 6 10 - - 1.4
18/07:30am 8.2 4.7 5.5 83 1.3 W 13 20 7 11 - - 1.4
18/07:00am 7.9 5.1 5.2 83 1.3 W 9 15 5 8 - - 1.4
18/06:30am 7.7 4.5 5.3 85 1.1 W 11 24 6 13 - - 1.4
18/06:00am 7.9 4.4 5.4 84 1.2 W 13 22 7 12 - - 1.4
18/05:30am 7.9 5.2 5.5 85 1.1 WNW 9 17 5 9 - - 1.4
18/05:00am 7.9 4.8 5.4 84 1.2 W 11 19 6 10 - - 1.4
18/04:30am 7.7 4.5 5.0 83 1.2 W 11 19 6 10 - - 1.4
18/04:00am 7.7 5.0 5.5 86 1.0 W 9 17 5 9 - - 1.4
18/03:30am 7.9 4.3 5.2 83 1.3 W 13 20 7 11 - - 1.4
18/03:00am 7.8 3.8 5.1 83 1.2 W 15 28 8 15 - - 1.4
18/02:30am 7.8 5.0 5.3 84 1.2 WNW 9 15 5 8 - - 1.4
18/02:00am 7.9 5.2 5.4 84 1.2 WNW 9 19 5 10 - - 1.4
18/01:30am 7.9 4.8 5.5 85 1.1 W 11 26 6 14 - - 1.4
18/01:00am 8.0 4.1 5.3 83 1.3 W 15 28 8 15 - - 1.4
18/12:30am 8.0 4.9 5.6 85 1.1 WSW 11 20 6 11 - - 1.4
18/12:00am 8.1 4.6 5.4 83 1.3 W 13 22 7 12 - - 1.4
 
Date/Time
EST
Temp
°C
App
Temp
°C
Dew
Point
°C
Rel
Hum
%
Delta-T
°C
Wind Press
QNH
hPa
Press
MSL
hPa
Rain since
9am
mm
Dir  Spd
km/h
Gust
km/h
Spd
kts
Gust
kts
17/11:30pm 8.1 4.7 5.7 85 1.1 W 13 26 7 14 - - 1.4
17/11:00pm 8.1 5.0 5.4 83 1.3 WSW 11 22 6 12 - - 1.4
17/10:30pm 8.1 5.0 5.4 83 1.3 W 11 19 6 10 - - 1.4
17/10:00pm 8.2 4.9 6.2 87 1.0 W 13 24 7 13 - - 1.4
17/09:30pm 8.4 4.2 5.9 84 1.2 W 17 30 9 16 - - 1.4
17/09:00pm 8.3 4.9 6.1 86 1.0 W 13 22 7 12 - - 1.4
17/08:30pm 8.4 5.7 5.7 83 1.3 W 9 17 5 9 - - 1.4
17/08:00pm 8.4 5.7 5.5 82 1.4 W 9 17 5 9 - - 1.4
17/07:30pm 8.7 5.7 5.8 82 1.4 W 11 20 6 11 - - 1.4
17/07:00pm 9.0 4.9 6.1 82 1.4 WSW 17 28 9 15 - - 1.4
17/06:30pm 8.9 6.0 6.3 84 1.2 W 11 24 6 13 - - 1.4
17/06:00pm 9.0 5.7 6.6 85 1.2 W 13 28 7 15 - - 1.4
17/05:30pm 9.2 5.7 7.2 87 1.0 WSW 15 24 8 13 - - 1.0
17/05:00pm 9.5 6.5 7.6 88 0.9 W 13 24 7 13 - - 0.8
17/04:30pm 10.0 7.0 7.6 85 1.2 WNW 13 26 7 14 - - 0.6
17/04:00pm 10.0 6.6 7.6 85 1.2 W 15 28 8 15 - - 0.6
17/03:30pm 10.5 7.0 7.2 80 1.6 W 15 28 8 15 - - 0.4
17/03:00pm 10.4 7.0 7.5 82 1.4 W 15 26 8 14 - - 0.4
17/02:30pm 10.2 6.7 7.4 83 1.4 W 15 28 8 15 - - 0.4
17/02:00pm 10.0 7.0 7.8 86 1.1 WSW 13 24 7 13 - - 0.4
17/01:30pm 10.1 7.1 7.9 86 1.1 W 13 24 7 13 - - 0.4
17/01:00pm 10.6 7.6 7.8 83 1.4 W 13 26 7 14 - - 0.4
17/12:30pm 10.6 7.6 7.5 81 1.5 WSW 13 24 7 13 - - 0.4
17/12:00pm 9.9 6.9 7.7 86 1.1 W 13 24 7 13 - - 0.4
17/11:30am 9.5 6.8 7.4 87 1.0 WNW 11 26 6 14 - - 0.2
17/11:00am 9.6 6.9 7.4 86 1.1 WNW 11 22 6 12 - - 0.2
17/10:30am 9.5 6.7 6.8 83 1.3 WNW 11 19 6 10 - - 0.2
17/10:00am 9.0 6.2 7.1 88 0.9 W 11 17 6 9 - - 0.2
17/09:30am 8.9 5.6 6.5 85 1.2 WNW 13 20 7 11 - - 0.0
17/09:00am 8.5 4.8 6.1 85 1.1 WNW 15 24 8 13 - - 0.2
17/08:30am 8.2 5.6 6.2 87 1.0 W 9 15 5 8 - - 0.0
17/08:00am 7.9 5.2 5.5 85 1.1 W 9 13 5 7 - - 0.0
17/07:30am 7.3 5.0 5.0 85 1.1 W 6 11 3 6 - - 0.0
17/07:00am 7.0 4.1 4.5 84 1.1 W 9 15 5 8 - - 0.0
17/06:30am 6.8 3.9 4.5 85 1.0 W 9 17 5 9 - - 0.0
17/06:00am 6.9 3.2 4.2 83 1.2 W 13 24 7 13 - - 0.0
17/05:30am 6.8 3.4 3.8 81 1.3 WNW 11 20 6 11 - - 0.0
17/05:00am 6.8 2.1 3.4 79 1.5 W 17 33 9 18 - - 0.0
17/04:30am 6.7 2.8 3.3 79 1.5 W 13 26 7 14 - - 0.0
17/04:00am 6.5 2.7 3.7 82 1.2 WSW 13 26 7 14 - - 0.0
17/03:30am 6.5 1.7 2.8 77 1.6 WSW 17 28 9 15 - - 0.0
17/03:00am 6.6 1.2 2.3 74 1.8 WSW 20 32 11 17 - - 0.0
17/02:30am 6.6 1.4 2.3 74 1.8 W 19 30 10 16 - - 0.0
17/02:00am 6.4 1.6 2.7 77 1.6 W 17 33 9 18 - - 0.0
17/01:30am 6.2 1.8 2.7 78 1.5 W 15 33 8 18 - - 0.0
17/01:00am 6.2 1.7 2.3 76 1.7 W 15 32 8 17 - - 0.0
17/12:30am 6.1 1.2 1.8 74 1.8 W 17 37 9 20 - - 0.0
17/12:00am 6.3 1.5 2.6 77 1.6 W 17 32 9 17 - - 0.0
 
Date/Time
EST
Temp
°C
App
Temp
°C
Dew
Point
°C
Rel
Hum
%
Delta-T
°C
Wind Press
QNH
hPa
Press
MSL
hPa
Rain since
9am
mm
Dir  Spd
km/h
Gust
km/h
Spd
kts
Gust
kts
16/11:30pm 6.1 2.0 2.2 76 1.7 WNW 13 24 7 13 - - 0.0
16/11:00pm 6.1 1.3 2.6 78 1.5 W 17 37 9 20 - - 0.0
16/10:30pm 6.1 2.8 2.6 78 1.5 W 9 17 5 9 - - 0.0
16/10:00pm 6.0 2.7 2.3 77 1.6 WSW 9 22 5 12 - - 0.0
16/09:30pm 6.0 3.1 2.5 78 1.5 E 7 15 4 8 - - 0.0
16/09:00pm 5.8 3.0 1.9 76 1.6 ESE 6 11 3 6 - - 0.0
16/08:30pm 5.6 2.8 2.1 78 1.5 W 6 13 3 7 - - 0.0
16/08:00pm 5.5 1.8 2.3 80 1.4 WNW 11 28 6 15 - - 0.0
16/07:30pm 5.5 1.9 2.7 82 1.2 WNW 11 20 6 11 - - 0.0
16/07:00pm 5.6 1.4 1.9 77 1.6 W 13 20 7 11 - - 0.0
16/06:30pm 5.8 1.8 2.8 81 1.3 W 13 24 7 13 - - 0.0
16/06:00pm 5.8 2.1 2.1 77 1.6 W 11 22 6 12 - - 0.0
16/05:30pm 5.8 1.6 1.9 76 1.6 W 13 26 7 14 - - 0.0
16/05:00pm 6.1 2.4 2.6 78 1.5 W 11 24 6 13 - - 0.0
16/04:30pm 6.3 2.2 2.4 76 1.7 W 13 28 7 15 - - 0.0
16/04:00pm 6.6 2.6 2.7 76 1.7 WNW 13 26 7 14 - - 0.0
16/03:30pm 6.8 2.7 2.5 74 1.9 WNW 13 20 7 11 - - 0.0
16/03:00pm 7.1 3.4 2.4 72 2.0 WNW 11 19 6 10 - - 0.0
16/02:30pm 7.0 3.4 2.9 75 1.8 W 11 22 6 12 - - 0.0
16/02:00pm 7.1 4.5 3.0 75 1.8 SSW 6 11 3 6 - - 0.0
16/01:30pm 7.0 3.5 3.6 79 1.5 NNW 11 20 6 11 - - 0.0
16/01:00pm 7.5 3.0 2.2 69 2.3 NW 15 26 8 14 - - 0.0
16/12:30pm 7.2 2.3 1.9 69 2.3 NW 17 26 9 14 - - 0.0
16/12:00pm 6.9 3.3 2.8 75 1.8 WNW 11 19 6 10 - - 0.0
16/11:30am 7.0 3.3 2.5 73 1.9 NW 11 20 6 11 - - 0.0
16/11:00am 6.4 1.5 2.1 74 1.8 NW 17 26 9 14 - - 0.0
16/10:30am 6.8 3.1 2.1 72 2.0 NW 11 20 6 11 - - 0.0
16/10:00am 5.7 1.4 1.2 73 1.9 NNW 13 20 7 11 - - 0.0
16/09:30am 5.1 1.7 1.6 78 1.5 NW 9 20 5 11 - - 0.0

Other formats

Comma delimited format used in spreadsheet applications
http://www.bom.gov.au/fwo/IDT60801/IDT60801.94959.axf

JavaScript Object Notation format (JSON) in row-major order
http://www.bom.gov.au/fwo/IDT60801/IDT60801.94959.json

Data quality

Most of these data are generated automatically and are frequently updated. Quality checks on data are not normally performed. It is possible for incorrect values to appear. Refer to information at About Latest Weather Observations and please check the disclaimer before using these data.